Main page
METAR-TAF:

METAR-TAF

Airports :

London-Corbin Airport

London, Kentucky, United States

latitude: 37-05-22N, longitude: 084-04-07W, elevation: 1210 ft

Current weather observation

The report was made 18 minutes ago, at 17:53 UTC
Wind 3 mph from the Southeast
Temperature 81°F
Humidity 51%
Pressure 30.12 in. Hg
Visibility: 10 miles
Few clouds at a height of 4500 ft

METAR: KLOZ 191753Z AUTO 13003KT 10SM FEW045 27/16 A3012 RMK AO2 SLP187 T02720161 10283 20183 58009

Time: 14:11 (18:11 UTC)

Forecast

The report was made 38 minutes ago, at 17:33 UTC
Forecast valid from 19 at 18 UTC to 20 at 18 UTC
Wind 5 mph from variable directions
Visibility: 6 miles
Scattered clouds at a height of 5000 ft
From 20 at 0900 UTC
Wind 3 mph from variable directions
Visibility: 6 miles
Broken clouds at a height of 4000 ft, Cumulonimbus.
thunderstorm in vicinity,

TAF: KLOZ 191733Z 1918/2018 VRB04KT P6SM SCT050 FM200900 VRB03KT P6SM VCTS BKN040CB

Weather observations and forecasts of more than 4000 airports (METAR and TAF reports).

The available stations are represented by yellow and red dots on the map.

Hover mouse over dot to see the name of the station.

Then click to see weather observations and forecasts.

To change the map : click on the green buttons with a black cross to zoom in, on the green button with a dash to zoom out, or on the green arrows for adjacent maps.


METAR-TAF: